RYR41LZ LIME-LIRN
Flight info
| Callsign | RYR41LZ |
|---|---|
| Flight time | 1h 3m |
| Altitude | 37000 |
| Route | LOGDI DCT OLNUK DCT LOMED DCT EVULI DCT ERIKA |
| Aircraft | B38M/M-SDE1FGHILORVWXY/HB1 |
Departure
| Time | 2026-04-28 17:58 |
|---|---|
| Airport | Il Caravaggio International Airport (LIME) |
Arrival
| Time | 2026-04-28 19:02 |
|---|---|
| Airport | Naples International Airport (LIRN) |
| Time | Latitude | Longitude | Altitude | Speed | Heading |
|---|---|---|---|---|---|
| 2026-04-28 17:31 | 45.66651 | 9.69926 | 793 ft | 0 kts | 192° |
| 2026-04-28 17:50 | 45.66664 | 9.69930 | 793 ft | 4 kts | 192° |
| 2026-04-28 17:50 | 45.66690 | 9.69939 | 793 ft | 4 kts | 193° |
| 2026-04-28 17:51 | 45.66716 | 9.69948 | 793 ft | 4 kts | 193° |
| 2026-04-28 17:51 | 45.66739 | 9.69952 | 793 ft | 4 kts | 163° |
| 2026-04-28 17:51 | 45.66756 | 9.69930 | 793 ft | 4 kts | 110° |
| 2026-04-28 17:51 | 45.66760 | 9.69909 | 793 ft | 1 kts | 105° |
| 2026-04-28 17:52 | 45.66761 | 9.69906 | 793 ft | 0 kts | 105° |
| 2026-04-28 17:54 | 45.66760 | 9.69909 | 793 ft | 1 kts | 105° |
| 2026-04-28 17:54 | 45.66750 | 9.69963 | 793 ft | 11 kts | 105° |
| 2026-04-28 17:54 | 45.66721 | 9.70120 | 792 ft | 21 kts | 104° |
| 2026-04-28 17:54 | 45.66680 | 9.70342 | 790 ft | 25 kts | 105° |
| 2026-04-28 17:55 | 45.66634 | 9.70588 | 789 ft | 27 kts | 104° |
| 2026-04-28 17:55 | 45.66590 | 9.70828 | 787 ft | 22 kts | 104° |
| 2026-04-28 17:55 | 45.66548 | 9.71054 | 785 ft | 25 kts | 107° |
| 2026-04-28 17:55 | 45.66498 | 9.71243 | 784 ft | 20 kts | 104° |
| 2026-04-28 17:56 | 45.66462 | 9.71445 | 782 ft | 22 kts | 104° |
| 2026-04-28 17:56 | 45.66450 | 9.71674 | 781 ft | 25 kts | 75° |
| 2026-04-28 17:56 | 45.66462 | 9.71925 | 778 ft | 27 kts | 106° |
| 2026-04-28 17:56 | 45.66415 | 9.72186 | 777 ft | 23 kts | 104° |
| 2026-04-28 17:57 | 45.66390 | 9.72323 | 776 ft | 10 kts | 104° |
| 2026-04-28 17:57 | 45.66375 | 9.72405 | 776 ft | 10 kts | 102° |
| 2026-04-28 17:57 | 45.66420 | 9.72459 | 775 ft | 11 kts | 347° |
| 2026-04-28 17:57 | 45.66472 | 9.72384 | 775 ft | 0 kts | 284° |
| 2026-04-28 17:58 | 45.66477 | 9.72352 | 776 ft | 24 kts | 284° |
| 2026-04-28 17:58 | 45.66605 | 9.71667 | 781 ft | 116 kts | 285° |
| 2026-04-28 17:58 | 45.66878 | 9.70195 | 871 ft | 180 kts | 285° |
| 2026-04-28 17:58 | 45.67211 | 9.68438 | 1879 ft | 183 kts | 286° |
| 2026-04-28 17:59 | 45.67325 | 9.66646 | 2986 ft | 188 kts | 261° |
| 2026-04-28 17:59 | 45.66782 | 9.64861 | 3634 ft | 210 kts | 230° |
| 2026-04-28 17:59 | 45.65566 | 9.63553 | 4314 ft | 232 kts | 202° |
| 2026-04-28 17:59 | 45.64058 | 9.62602 | 5089 ft | 250 kts | 214° |
| 2026-04-28 18:00 | 45.62832 | 9.60891 | 6343 ft | 245 kts | 227° |
| 2026-04-28 18:00 | 45.61654 | 9.59097 | 7538 ft | 251 kts | 227° |
| 2026-04-28 18:00 | 45.60462 | 9.57266 | 8664 ft | 252 kts | 227° |
| 2026-04-28 18:00 | 45.59253 | 9.55438 | 9776 ft | 255 kts | 225° |
| 2026-04-28 18:01 | 45.57987 | 9.53637 | 10786 ft | 258 kts | 226° |
| 2026-04-28 18:01 | 45.56708 | 9.51806 | 11765 ft | 262 kts | 226° |
| 2026-04-28 18:01 | 45.55409 | 9.49936 | 12593 ft | 273 kts | 226° |
| 2026-04-28 18:01 | 45.54026 | 9.47941 | 13132 ft | 293 kts | 226° |
| 2026-04-28 18:02 | 45.52543 | 9.45800 | 13630 ft | 314 kts | 226° |
| 2026-04-28 18:02 | 45.50983 | 9.43548 | 14042 ft | 334 kts | 226° |
| 2026-04-28 18:02 | 45.49202 | 9.41263 | 14370 ft | 356 kts | 213° |
| 2026-04-28 18:02 | 45.46819 | 9.40148 | 14954 ft | 371 kts | 186° |
| 2026-04-28 18:03 | 45.44242 | 9.40709 | 15677 ft | 383 kts | 160° |
| 2026-04-28 18:03 | 45.42028 | 9.42878 | 16400 ft | 397 kts | 135° |
| 2026-04-28 18:03 | 45.40431 | 9.46130 | 17111 ft | 404 kts | 124° |
| 2026-04-28 18:03 | 45.38639 | 9.49223 | 17704 ft | 407 kts | 140° |
| 2026-04-28 18:04 | 45.36493 | 9.51866 | 18423 ft | 410 kts | 143° |
| 2026-04-28 18:04 | 45.34289 | 9.54394 | 19007 ft | 414 kts | 145° |
| 2026-04-28 18:04 | 45.31999 | 9.56901 | 19649 ft | 417 kts | 146° |
| 2026-04-28 18:04 | 45.29676 | 9.59387 | 20258 ft | 421 kts | 146° |
| 2026-04-28 18:05 | 45.27315 | 9.61881 | 20863 ft | 424 kts | 147° |
| 2026-04-28 18:05 | 45.25737 | 9.63535 | 21262 ft | 427 kts | 147° |
| 2026-04-28 18:05 | 45.22520 | 9.66893 | 22049 ft | 432 kts | 147° |
| 2026-04-28 18:05 | 45.20084 | 9.69428 | 22629 ft | 436 kts | 147° |
| 2026-04-28 18:06 | 45.17633 | 9.71976 | 23222 ft | 439 kts | 147° |
| 2026-04-28 18:06 | 45.15184 | 9.74519 | 23764 ft | 443 kts | 147° |
| 2026-04-28 18:06 | 45.12695 | 9.77099 | 24277 ft | 445 kts | 147° |
| 2026-04-28 18:06 | 45.10189 | 9.79696 | 24744 ft | 449 kts | 147° |
| 2026-04-28 18:07 | 45.07661 | 9.82312 | 25203 ft | 452 kts | 147° |
| 2026-04-28 18:07 | 45.05111 | 9.84948 | 25669 ft | 455 kts | 147° |
| 2026-04-28 18:07 | 45.02547 | 9.87595 | 26130 ft | 459 kts | 147° |
| 2026-04-28 18:07 | 44.99960 | 9.90263 | 26557 ft | 462 kts | 147° |
| 2026-04-28 18:08 | 44.97352 | 9.92949 | 26997 ft | 465 kts | 147° |
| 2026-04-28 18:08 | 44.94730 | 9.95647 | 27426 ft | 468 kts | 147° |
| 2026-04-28 18:08 | 44.92088 | 9.98363 | 27875 ft | 471 kts | 147° |
| 2026-04-28 18:08 | 44.89427 | 10.01094 | 28298 ft | 474 kts | 147° |
| 2026-04-28 18:09 | 44.86786 | 10.03802 | 28698 ft | 477 kts | 147° |
| 2026-04-28 18:09 | 44.84089 | 10.06563 | 29105 ft | 480 kts | 147° |
| 2026-04-28 18:09 | 44.81381 | 10.09334 | 29497 ft | 484 kts | 147° |
| 2026-04-28 18:09 | 44.78645 | 10.12128 | 29893 ft | 487 kts | 147° |
| 2026-04-28 18:10 | 44.75907 | 10.14925 | 30335 ft | 487 kts | 147° |
| 2026-04-28 18:10 | 44.73158 | 10.17727 | 30779 ft | 486 kts | 147° |
| 2026-04-28 18:10 | 44.70461 | 10.20575 | 31255 ft | 486 kts | 145° |
| 2026-04-28 18:10 | 44.67783 | 10.23473 | 31735 ft | 485 kts | 145° |
| 2026-04-28 18:11 | 44.65138 | 10.26316 | 32194 ft | 485 kts | 145° |
| 2026-04-28 18:11 | 44.62453 | 10.29193 | 32638 ft | 485 kts | 145° |
| 2026-04-28 18:11 | 44.59772 | 10.32062 | 33148 ft | 485 kts | 145° |
| 2026-04-28 18:11 | 44.57089 | 10.34931 | 33570 ft | 485 kts | 146° |
| 2026-04-28 18:12 | 44.54406 | 10.37795 | 34017 ft | 485 kts | 146° |
| 2026-04-28 18:12 | 44.51720 | 10.40660 | 34404 ft | 485 kts | 145° |
| 2026-04-28 18:12 | 44.49036 | 10.43519 | 34814 ft | 484 kts | 145° |
| 2026-04-28 18:12 | 44.46356 | 10.46370 | 35198 ft | 484 kts | 145° |
| 2026-04-28 18:13 | 44.43678 | 10.49216 | 35558 ft | 483 kts | 145° |
| 2026-04-28 18:13 | 44.41003 | 10.52056 | 35912 ft | 483 kts | 145° |
| 2026-04-28 18:13 | 44.38388 | 10.54903 | 36234 ft | 484 kts | 141° |
| 2026-04-28 18:13 | 44.35888 | 10.58060 | 36581 ft | 484 kts | 139° |
| 2026-04-28 18:14 | 44.33403 | 10.61233 | 36897 ft | 485 kts | 139° |
| 2026-04-28 18:14 | 44.30914 | 10.64423 | 37167 ft | 485 kts | 139° |
| 2026-04-28 18:14 | 44.25944 | 10.70788 | 37160 ft | 483 kts | 139° |
| 2026-04-28 18:15 | 44.20988 | 10.77121 | 37175 ft | 484 kts | 139° |
| 2026-04-28 18:15 | 44.16063 | 10.83400 | 37168 ft | 484 kts | 139° |
| 2026-04-28 18:16 | 44.11095 | 10.89718 | 37135 ft | 484 kts | 139° |
| 2026-04-28 18:16 | 44.06131 | 10.96017 | 37086 ft | 483 kts | 139° |
| 2026-04-28 18:17 | 44.01207 | 11.02382 | 37054 ft | 483 kts | 138° |
| 2026-04-28 18:17 | 43.96331 | 11.08802 | 37034 ft | 483 kts | 138° |
| 2026-04-28 18:18 | 43.91480 | 11.15160 | 37032 ft | 483 kts | 138° |
| 2026-04-28 18:18 | 43.87386 | 11.20514 | 37020 ft | 483 kts | 138° |
| 2026-04-28 18:19 | 43.81710 | 11.27919 | 37008 ft | 482 kts | 139° |
| 2026-04-28 18:19 | 43.76820 | 11.34282 | 37009 ft | 482 kts | 139° |
| 2026-04-28 18:20 | 43.71927 | 11.40634 | 37009 ft | 483 kts | 139° |
| 2026-04-28 18:20 | 43.67060 | 11.46937 | 37014 ft | 483 kts | 139° |
| 2026-04-28 18:21 | 43.62161 | 11.53268 | 37008 ft | 482 kts | 139° |
| 2026-04-28 18:21 | 43.57255 | 11.59592 | 37012 ft | 482 kts | 139° |
| 2026-04-28 18:22 | 43.52350 | 11.65899 | 37011 ft | 482 kts | 139° |
| 2026-04-28 18:22 | 43.47474 | 11.72156 | 37015 ft | 482 kts | 139° |
| 2026-04-28 18:23 | 43.42562 | 11.78445 | 37020 ft | 482 kts | 139° |
| 2026-04-28 18:23 | 43.37646 | 11.84724 | 37014 ft | 482 kts | 139° |
| 2026-04-28 18:24 | 43.33565 | 11.89924 | 37013 ft | 482 kts | 139° |
| 2026-04-28 18:24 | 43.27820 | 11.97229 | 37010 ft | 482 kts | 139° |
| 2026-04-28 18:25 | 43.22934 | 12.03426 | 37014 ft | 482 kts | 139° |
| 2026-04-28 18:26 | 43.15559 | 12.12754 | 37011 ft | 480 kts | 139° |
| 2026-04-28 18:26 | 43.10645 | 12.18951 | 37018 ft | 480 kts | 139° |
| 2026-04-28 18:27 | 43.05732 | 12.25132 | 37016 ft | 480 kts | 139° |
| 2026-04-28 18:27 | 43.00845 | 12.31267 | 37018 ft | 480 kts | 139° |
| 2026-04-28 18:28 | 42.95926 | 12.37429 | 37011 ft | 480 kts | 139° |
| 2026-04-28 18:28 | 42.91001 | 12.43583 | 37023 ft | 480 kts | 139° |
| 2026-04-28 18:29 | 42.86069 | 12.49733 | 37016 ft | 480 kts | 139° |
| 2026-04-28 18:29 | 42.81169 | 12.55829 | 37028 ft | 480 kts | 139° |
| 2026-04-28 18:30 | 42.76233 | 12.61956 | 37015 ft | 480 kts | 139° |
| 2026-04-28 18:30 | 42.71286 | 12.68082 | 37029 ft | 480 kts | 139° |
| 2026-04-28 18:31 | 42.66345 | 12.74188 | 37050 ft | 480 kts | 139° |
| 2026-04-28 18:31 | 42.61401 | 12.80283 | 37060 ft | 480 kts | 140° |
| 2026-04-28 18:32 | 42.56479 | 12.86338 | 37070 ft | 481 kts | 140° |
| 2026-04-28 18:32 | 42.51521 | 12.92423 | 37078 ft | 481 kts | 140° |
| 2026-04-28 18:33 | 42.46564 | 12.98494 | 37081 ft | 480 kts | 140° |
| 2026-04-28 18:33 | 42.41609 | 13.04549 | 37082 ft | 479 kts | 140° |
| 2026-04-28 18:34 | 42.36655 | 13.10588 | 37057 ft | 479 kts | 140° |
| 2026-04-28 18:34 | 42.31733 | 13.16579 | 37055 ft | 480 kts | 140° |
| 2026-04-28 18:35 | 42.26768 | 13.22609 | 37049 ft | 480 kts | 140° |
| 2026-04-28 18:35 | 42.21797 | 13.28632 | 37046 ft | 481 kts | 140° |
| 2026-04-28 18:36 | 42.16838 | 13.34678 | 37039 ft | 481 kts | 139° |
| 2026-04-28 18:36 | 42.12007 | 13.40829 | 36618 ft | 478 kts | 139° |
| 2026-04-28 18:36 | 42.09598 | 13.43880 | 36106 ft | 474 kts | 139° |
| 2026-04-28 18:37 | 42.07205 | 13.46908 | 35485 ft | 469 kts | 138° |
| 2026-04-28 18:37 | 42.04828 | 13.49909 | 34772 ft | 470 kts | 138° |
| 2026-04-28 18:37 | 42.02436 | 13.52928 | 34018 ft | 472 kts | 138° |
| 2026-04-28 18:37 | 42.00035 | 13.55951 | 33157 ft | 474 kts | 138° |
| 2026-04-28 18:38 | 41.97624 | 13.58987 | 32330 ft | 475 kts | 138° |
| 2026-04-28 18:38 | 41.95208 | 13.62025 | 31528 ft | 476 kts | 138° |
| 2026-04-28 18:38 | 41.92788 | 13.65064 | 30749 ft | 476 kts | 138° |
| 2026-04-28 18:38 | 41.90420 | 13.68037 | 29946 ft | 467 kts | 138° |
| 2026-04-28 18:39 | 41.88076 | 13.70975 | 29084 ft | 457 kts | 138° |
| 2026-04-28 18:39 | 41.85772 | 13.73859 | 28230 ft | 448 kts | 138° |
| 2026-04-28 18:39 | 41.83514 | 13.76684 | 27416 ft | 440 kts | 138° |
| 2026-04-28 18:39 | 41.81293 | 13.79460 | 26621 ft | 433 kts | 138° |
| 2026-04-28 18:40 | 41.79104 | 13.82193 | 25849 ft | 426 kts | 138° |
| 2026-04-28 18:40 | 41.76951 | 13.84878 | 25095 ft | 420 kts | 137° |
| 2026-04-28 18:40 | 41.74830 | 13.87521 | 24367 ft | 414 kts | 137° |
| 2026-04-28 18:40 | 41.72735 | 13.90129 | 23654 ft | 408 kts | 137° |
| 2026-04-28 18:41 | 41.70699 | 13.92661 | 22845 ft | 403 kts | 138° |
| 2026-04-28 18:41 | 41.68657 | 13.95198 | 22029 ft | 398 kts | 138° |
| 2026-04-28 18:41 | 41.66636 | 13.97706 | 21237 ft | 394 kts | 138° |
| 2026-04-28 18:41 | 41.64639 | 14.00185 | 20472 ft | 390 kts | 138° |
| 2026-04-28 18:42 | 41.62666 | 14.02642 | 19724 ft | 386 kts | 136° |
| 2026-04-28 18:42 | 41.60859 | 14.05267 | 18974 ft | 382 kts | 133° |
| 2026-04-28 18:42 | 41.59077 | 14.07889 | 18262 ft | 379 kts | 133° |
| 2026-04-28 18:42 | 41.57302 | 14.10474 | 17444 ft | 376 kts | 134° |
| 2026-04-28 18:43 | 41.55539 | 14.13028 | 16654 ft | 372 kts | 134° |
| 2026-04-28 18:43 | 41.53810 | 14.15524 | 15896 ft | 369 kts | 134° |
| 2026-04-28 18:43 | 41.52077 | 14.18022 | 15151 ft | 365 kts | 133° |
| 2026-04-28 18:43 | 41.50358 | 14.20495 | 14418 ft | 361 kts | 133° |
| 2026-04-28 18:44 | 41.48657 | 14.22942 | 13695 ft | 358 kts | 133° |
| 2026-04-28 18:44 | 41.45307 | 14.27753 | 12131 ft | 350 kts | 133° |
| 2026-04-28 18:44 | 41.43657 | 14.30121 | 11413 ft | 346 kts | 133° |
| 2026-04-28 18:45 | 41.42027 | 14.32353 | 11227 ft | 323 kts | 139° |
| 2026-04-28 18:45 | 41.40382 | 14.34252 | 11127 ft | 306 kts | 140° |
| 2026-04-28 18:45 | 41.38805 | 14.36088 | 11085 ft | 304 kts | 140° |
| 2026-04-28 18:45 | 41.37227 | 14.37941 | 11036 ft | 297 kts | 139° |
| 2026-04-28 18:46 | 41.35736 | 14.39701 | 11043 ft | 275 kts | 139° |
| 2026-04-28 18:46 | 41.34353 | 14.41338 | 11028 ft | 261 kts | 140° |
| 2026-04-28 18:46 | 41.32921 | 14.42794 | 11034 ft | 258 kts | 150° |
| 2026-04-28 18:46 | 41.31387 | 14.44023 | 11048 ft | 258 kts | 149° |
| 2026-04-28 18:47 | 41.29846 | 14.45271 | 10990 ft | 260 kts | 149° |
| 2026-04-28 18:47 | 41.28308 | 14.46536 | 10680 ft | 262 kts | 149° |
| 2026-04-28 18:47 | 41.26764 | 14.47819 | 10323 ft | 261 kts | 148° |
| 2026-04-28 18:47 | 41.25254 | 14.49083 | 9982 ft | 259 kts | 148° |
| 2026-04-28 18:48 | 41.23750 | 14.50389 | 9602 ft | 258 kts | 145° |
| 2026-04-28 18:48 | 41.22316 | 14.51791 | 9205 ft | 253 kts | 144° |
| 2026-04-28 18:48 | 41.20907 | 14.53164 | 8812 ft | 250 kts | 145° |
| 2026-04-28 18:48 | 41.19507 | 14.54521 | 8449 ft | 249 kts | 145° |
| 2026-04-28 18:49 | 41.18111 | 14.55870 | 8096 ft | 248 kts | 145° |
| 2026-04-28 18:49 | 41.17193 | 14.56766 | 7881 ft | 248 kts | 142° |
| 2026-04-28 18:49 | 41.15949 | 14.59266 | 7304 ft | 247 kts | 103° |
| 2026-04-28 18:49 | 41.15982 | 14.61482 | 7058 ft | 246 kts | 75° |
| 2026-04-28 18:50 | 41.16711 | 14.63537 | 7078 ft | 249 kts | 61° |
| 2026-04-28 18:50 | 41.17587 | 14.65531 | 7063 ft | 250 kts | 60° |
| 2026-04-28 18:50 | 41.18476 | 14.67515 | 6982 ft | 250 kts | 60° |
| 2026-04-28 18:50 | 41.19361 | 14.69469 | 6960 ft | 244 kts | 60° |
| 2026-04-28 18:51 | 41.20159 | 14.71420 | 6950 ft | 238 kts | 73° |
| 2026-04-28 18:51 | 41.20258 | 14.73564 | 6919 ft | 233 kts | 104° |
| 2026-04-28 18:51 | 41.19566 | 14.75474 | 6924 ft | 231 kts | 131° |
| 2026-04-28 18:51 | 41.18367 | 14.76822 | 6947 ft | 230 kts | 147° |
| 2026-04-28 18:52 | 41.17033 | 14.78000 | 6953 ft | 230 kts | 148° |
| 2026-04-28 18:52 | 41.15689 | 14.79136 | 6948 ft | 226 kts | 152° |
| 2026-04-28 18:52 | 41.14220 | 14.79641 | 6927 ft | 218 kts | 181° |
| 2026-04-28 18:52 | 41.12774 | 14.79130 | 6915 ft | 217 kts | 208° |
| 2026-04-28 18:53 | 41.11654 | 14.77805 | 6920 ft | 218 kts | 232° |
| 2026-04-28 18:53 | 41.10789 | 14.76142 | 6933 ft | 219 kts | 235° |
| 2026-04-28 18:53 | 41.09952 | 14.74454 | 6931 ft | 219 kts | 236° |
| 2026-04-28 18:53 | 41.09138 | 14.72775 | 6824 ft | 219 kts | 236° |
| 2026-04-28 18:54 | 41.08321 | 14.71072 | 6620 ft | 218 kts | 236° |
| 2026-04-28 18:54 | 41.07513 | 14.69374 | 6382 ft | 217 kts | 237° |
| 2026-04-28 18:54 | 41.06711 | 14.67679 | 6131 ft | 217 kts | 237° |
| 2026-04-28 18:54 | 41.05919 | 14.65994 | 5921 ft | 212 kts | 237° |
| 2026-04-28 18:55 | 41.05177 | 14.64407 | 5800 ft | 196 kts | 237° |
| 2026-04-28 18:55 | 41.04704 | 14.63395 | 5710 ft | 194 kts | 237° |
| 2026-04-28 18:55 | 41.03753 | 14.61358 | 5474 ft | 194 kts | 237° |
| 2026-04-28 18:55 | 41.03055 | 14.59863 | 5245 ft | 193 kts | 237° |
| 2026-04-28 18:56 | 41.02350 | 14.58355 | 4972 ft | 192 kts | 237° |
| 2026-04-28 18:56 | 41.01650 | 14.56858 | 4732 ft | 191 kts | 237° |
| 2026-04-28 18:56 | 41.00951 | 14.55362 | 4509 ft | 191 kts | 237° |
| 2026-04-28 18:56 | 41.00252 | 14.53869 | 4271 ft | 190 kts | 237° |
| 2026-04-28 18:57 | 40.99556 | 14.52383 | 4012 ft | 190 kts | 237° |
| 2026-04-28 18:57 | 40.98862 | 14.50900 | 3762 ft | 189 kts | 237° |
| 2026-04-28 18:57 | 40.98182 | 14.49447 | 3624 ft | 178 kts | 237° |
| 2026-04-28 18:57 | 40.97558 | 14.48117 | 3427 ft | 169 kts | 237° |
| 2026-04-28 18:58 | 40.96947 | 14.46815 | 3191 ft | 163 kts | 237° |
| 2026-04-28 18:58 | 40.96361 | 14.45565 | 2964 ft | 157 kts | 237° |
| 2026-04-28 18:58 | 40.95788 | 14.44346 | 2736 ft | 155 kts | 237° |
| 2026-04-28 18:58 | 40.95218 | 14.43132 | 2513 ft | 155 kts | 237° |
| 2026-04-28 18:59 | 40.94653 | 14.41929 | 2300 ft | 151 kts | 237° |
| 2026-04-28 18:59 | 40.94110 | 14.40775 | 2053 ft | 145 kts | 237° |
| 2026-04-28 18:59 | 40.93584 | 14.39656 | 1894 ft | 144 kts | 237° |
| 2026-04-28 18:59 | 40.93056 | 14.38533 | 1710 ft | 143 kts | 237° |
| 2026-04-28 19:00 | 40.92530 | 14.37415 | 1521 ft | 143 kts | 237° |
| 2026-04-28 19:00 | 40.92016 | 14.36314 | 1346 ft | 142 kts | 237° |
| 2026-04-28 19:00 | 40.91511 | 14.35191 | 1153 ft | 142 kts | 237° |
| 2026-04-28 19:00 | 40.90991 | 14.34081 | 950 ft | 141 kts | 236° |
| 2026-04-28 19:01 | 40.90467 | 14.32999 | 701 ft | 138 kts | 236° |
| 2026-04-28 19:01 | 40.89954 | 14.31935 | 522 ft | 138 kts | 237° |
| 2026-04-28 19:01 | 40.89453 | 14.30863 | 348 ft | 136 kts | 238° |
| 2026-04-28 19:01 | 40.88975 | 14.29854 | 244 ft | 120 kts | 238° |
| 2026-04-28 19:02 | 40.88618 | 14.29113 | 269 ft | 69 kts | 239° |
| 2026-04-28 19:02 | 40.88428 | 14.28708 | 286 ft | 35 kts | 237° |
| 2026-04-28 19:02 | 40.88310 | 14.28501 | 296 ft | 26 kts | 220° |
| 2026-04-28 19:02 | 40.88154 | 14.28369 | 301 ft | 24 kts | 209° |
| 2026-04-28 19:03 | 40.88085 | 14.28319 | 301 ft | 0 kts | 214° |
| 2026-04-28 19:04 | 40.88080 | 14.28315 | 303 ft | 2 kts | 215° |
| 2026-04-28 19:04 | 40.88071 | 14.28290 | 304 ft | 7 kts | 252° |
| 2026-04-28 19:04 | 40.88039 | 14.28175 | 309 ft | 18 kts | 238° |
| 2026-04-28 19:04 | 40.87977 | 14.28116 | 311 ft | 6 kts | 204° |
| 2026-04-28 19:05 | 40.87940 | 14.28086 | 311 ft | 6 kts | 222° |
| 2026-04-28 19:05 | 40.87910 | 14.28041 | 313 ft | 7 kts | 230° |
| 2026-04-28 19:05 | 40.87878 | 14.27999 | 315 ft | 6 kts | 206° |
| 2026-04-28 19:05 | 40.87837 | 14.28017 | 314 ft | 8 kts | 141° |
| 2026-04-28 19:06 | 40.87813 | 14.28042 | 315 ft | 2 kts | 142° |
| 2026-04-28 19:06 | 40.87812 | 14.28043 | 315 ft | 0 kts | 142° |